San Diego, California
Traffic Map
Current Weather Conditions
San Diego, California
Broken Clouds
Broken Clouds
20°
Feels Like: 20°
Wind Chill: 20° Ceiling: 2400
Heat Index: 20° Visibility: 10mi
Dew Point: 12° Wind: 9mph
Humidity: 59% Direction: 260° (W)
Pressure: 30.04in Gusts: 0mph
Raw Report DataKSAN 262151Z 26008KT 10SM FEW018 BKN024 BKN035 20/12 A3004 RMK AO2 SLP170 T02000117
Traffic Incident Summary
Active as of:
Severity:
Category:
InformationThere was an issue retrieving the traffic information for this location. Please try a different location or try again shortly.
Advertisements
Track Severe Weather on mobile